createdAt,value
2018-09-29T00:01:22.580Z,81.44
2018-09-29T00:03:51.371Z,81.62
2018-09-29T00:06:20.220Z,82.18
2018-09-29T00:08:49.038Z,84.22
2018-09-29T00:11:17.944Z,84.42
2018-09-29T00:13:46.738Z,83.45
2018-09-29T00:16:15.595Z,83.14
2018-09-29T00:18:44.381Z,83.33
2018-09-29T00:21:13.232Z,82.90
2018-09-29T00:23:42.079Z,82.83
2018-09-29T00:26:10.920Z,82.77
2018-09-29T00:28:39.716Z,83.44
2018-09-29T00:31:08.564Z,83.70
2018-09-29T00:33:38.432Z,83.92
2018-09-29T00:36:07.389Z,82.51
2018-09-29T00:38:36.168Z,81.73
2018-09-29T00:41:04.975Z,82.46
2018-09-29T00:43:34.073Z,82.60
2018-09-29T00:46:02.992Z,82.71
2018-09-29T00:48:33.115Z,82.93
2018-09-29T00:51:01.924Z,82.15
2018-09-29T00:53:30.763Z,82.00
2018-09-29T00:55:59.624Z,82.95
2018-09-29T00:58:28.468Z,83.39
2018-09-29T01:00:57.780Z,85.33
2018-09-29T01:03:26.624Z,84.52
2018-09-29T01:05:55.451Z,84.50
2018-09-29T01:08:24.300Z,84.72
2018-09-29T01:10:53.108Z,83.64
2018-09-29T01:13:22.011Z,84.65
2018-09-29T01:15:50.801Z,83.85
2018-09-29T01:18:19.959Z,84.34
2018-09-29T01:20:48.814Z,84.55
2018-09-29T01:23:17.668Z,83.10
2018-09-29T01:25:46.523Z,83.75
2018-09-29T01:28:15.411Z,84.30
2018-09-29T01:30:44.200Z,84.66
2018-09-29T01:33:12.988Z,85.03
2018-09-29T01:35:41.809Z,83.96
2018-09-29T01:38:10.659Z,83.11
2018-09-29T01:40:39.487Z,82.15
2018-09-29T01:43:08.280Z,82.68
2018-09-29T01:45:37.371Z,82.72
2018-09-29T01:48:06.189Z,82.87
2018-09-29T01:50:35.144Z,82.80
2018-09-29T01:53:04.015Z,82.69
2018-09-29T01:55:32.900Z,83.14
2018-09-29T01:58:01.687Z,83.17
2018-09-29T02:00:30.546Z,82.29
2018-09-29T02:03:03.893Z,83.04
2018-09-29T02:05:32.783Z,83.51
2018-09-29T02:08:01.640Z,83.23
2018-09-29T02:10:30.882Z,84.38
2018-09-29T02:13:00.301Z,84.33
2018-09-29T02:15:29.221Z,83.82
2018-09-29T02:17:58.024Z,83.53
2018-09-29T02:20:26.905Z,82.37
2018-09-29T02:22:56.038Z,82.81
2018-09-29T02:25:25.391Z,83.33
2018-09-29T02:27:54.183Z,83.29
2018-09-29T02:30:23.003Z,83.29
2018-09-29T02:32:51.846Z,83.63
2018-09-29T02:35:20.937Z,83.18
2018-09-29T02:37:49.869Z,84.01
2018-09-29T02:40:18.689Z,85.18
2018-09-29T02:42:47.499Z,86.85
2018-09-29T02:45:16.295Z,88.35
2018-09-29T02:47:45.124Z,86.13
2018-09-29T02:50:13.967Z,85.82
2018-09-29T02:52:42.792Z,86.16
2018-09-29T02:55:11.627Z,84.80
2018-09-29T02:57:40.489Z,85.68
2018-09-29T03:00:09.276Z,85.89
2018-09-29T03:02:38.164Z,86.48
2018-09-29T03:05:07.016Z,87.94
2018-09-29T03:07:37.880Z,86.90
2018-09-29T03:10:06.748Z,85.94
2018-09-29T03:12:35.559Z,85.25
2018-09-29T03:15:04.601Z,85.56
2018-09-29T03:17:33.451Z,85.31
2018-09-29T03:20:02.240Z,85.93
2018-09-29T03:22:31.698Z,85.68
2018-09-29T03:25:00.493Z,84.83
2018-09-29T03:27:29.438Z,83.89
2018-09-29T03:29:58.264Z,84.65
2018-09-29T03:32:27.077Z,84.73
2018-09-29T03:34:55.929Z,85.33
2018-09-29T03:37:24.727Z,85.41
2018-09-29T03:39:53.904Z,84.82
2018-09-29T03:42:22.691Z,85.49
2018-09-29T03:44:52.435Z,85.96
2018-09-29T03:47:21.199Z,86.43
2018-09-29T03:49:50.065Z,86.09
2018-09-29T03:52:18.988Z,90.47
2018-09-29T03:54:47.989Z,91.00
2018-09-29T03:57:16.796Z,91.81
2018-09-29T03:59:45.631Z,89.92
2018-09-29T04:02:14.453Z,89.85
2018-09-29T04:04:43.353Z,90.66
2018-09-29T04:07:12.146Z,89.50
2018-09-29T04:09:40.972Z,87.84
2018-09-29T04:12:09.778Z,87.25
2018-09-29T04:14:38.624Z,88.39
2018-09-29T04:17:07.604Z,87.75
2018-09-29T04:19:36.461Z,86.32
2018-09-29T04:22:05.351Z,86.54
2018-09-29T04:24:34.288Z,86.51
2018-09-29T04:27:03.110Z,86.92
2018-09-29T04:29:31.996Z,86.78
2018-09-29T04:32:00.834Z,85.79
2018-09-29T04:34:29.627Z,85.63
2018-09-29T04:36:58.453Z,85.03
2018-09-29T04:39:27.288Z,84.88
2018-09-29T04:41:56.164Z,84.32
2018-09-29T04:44:24.947Z,83.96
2018-09-29T04:46:53.795Z,83.40
2018-09-29T04:49:22.551Z,84.95
2018-09-29T04:51:51.371Z,86.21
2018-09-29T04:54:20.192Z,88.11
2018-09-29T04:56:49.084Z,87.10
2018-09-29T04:59:17.875Z,83.87
2018-09-29T05:01:46.699Z,85.75
2018-09-29T05:04:16.026Z,89.04
2018-09-29T05:06:44.900Z,89.85
2018-09-29T05:09:13.716Z,88.43
2018-09-29T05:11:42.543Z,84.73
2018-09-29T05:14:11.356Z,84.34
2018-09-29T05:16:40.229Z,84.54
2018-09-29T05:19:09.437Z,84.51
2018-09-29T05:21:38.303Z,83.17
2018-09-29T05:24:07.271Z,84.72
2018-09-29T05:26:36.324Z,86.81
2018-09-29T05:29:05.167Z,88.67
2018-09-29T05:31:34.061Z,88.67
2018-09-29T05:34:02.895Z,86.84
2018-09-29T05:36:31.715Z,88.83
2018-09-29T05:39:00.583Z,88.71
2018-09-29T05:41:29.396Z,86.67
2018-09-29T05:43:58.425Z,85.49
2018-09-29T05:46:27.201Z,84.89
2018-09-29T05:48:56.037Z,84.01
2018-09-29T05:51:25.129Z,87.66
2018-09-29T05:53:53.950Z,86.13
2018-09-29T05:56:22.940Z,85.70
2018-09-29T05:58:51.839Z,85.03
2018-09-29T06:01:20.620Z,85.07
2018-09-29T06:03:49.445Z,86.91
2018-09-29T06:06:18.241Z,86.70
2018-09-29T06:08:47.128Z,86.02
2018-09-29T06:11:16.334Z,86.38
2018-09-29T06:13:45.165Z,85.83
2018-09-29T06:16:13.977Z,87.15
2018-09-29T06:18:42.841Z,85.31
2018-09-29T06:21:11.836Z,84.90
2018-09-29T06:23:40.700Z,85.34
2018-09-29T06:26:09.800Z,86.04
2018-09-29T06:28:38.571Z,85.66
2018-09-29T06:31:07.459Z,85.23
2018-09-29T06:33:36.364Z,85.11
2018-09-29T06:36:05.267Z,84.25
2018-09-29T06:38:34.413Z,84.48
2018-09-29T06:41:03.531Z,83.15
2018-09-29T06:43:32.545Z,82.22
2018-09-29T06:46:01.456Z,81.29
2018-09-29T06:48:30.274Z,81.63
2018-09-29T06:50:59.096Z,81.12
2018-09-29T06:53:27.891Z,80.75
2018-09-29T06:55:56.790Z,80.14
2018-09-29T06:58:25.628Z,79.33
2018-09-29T07:00:54.476Z,78.82
2018-09-29T07:03:23.286Z,77.84
2018-09-29T07:05:52.124Z,77.14
2018-09-29T07:08:20.959Z,77.06
2018-09-29T07:10:49.879Z,77.14
2018-09-29T07:13:18.695Z,76.39
2018-09-29T07:15:47.619Z,75.63
2018-09-29T07:18:16.403Z,75.41
2018-09-29T07:20:45.178Z,74.22
2018-09-29T07:23:14.116Z,74.07
2018-09-29T07:25:43.152Z,73.38
2018-09-29T07:28:12.053Z,73.74
2018-09-29T07:30:40.829Z,72.60
2018-09-29T07:33:09.653Z,72.05
2018-09-29T07:35:38.537Z,70.69
2018-09-29T07:38:07.396Z,70.99
2018-09-29T07:40:36.259Z,70.30
2018-09-29T07:43:05.110Z,69.34
2018-09-29T07:45:39.779Z,69.62
2018-09-29T07:48:08.660Z,68.04
2018-09-29T07:50:37.471Z,69.47
2018-09-29T07:53:06.350Z,68.76
2018-09-29T07:55:35.213Z,68.01
2018-09-29T07:58:04.058Z,67.54
2018-09-29T08:00:33.273Z,66.53
2018-09-29T08:03:02.190Z,66.42
2018-09-29T08:05:30.984Z,66.82
2018-09-29T08:07:59.829Z,66.56
2018-09-29T08:10:28.628Z,65.83
2018-09-29T08:12:57.828Z,64.17
2018-09-29T08:15:26.605Z,63.21
2018-09-29T08:17:55.532Z,62.38
2018-09-29T08:20:24.324Z,63.07
2018-09-29T08:22:53.132Z,61.46
2018-09-29T08:25:22.045Z,60.31
2018-09-29T08:27:50.837Z,59.29
2018-09-29T08:30:19.921Z,60.33
2018-09-29T08:32:48.835Z,58.97
2018-09-29T08:35:17.693Z,59.88
2018-09-29T08:37:46.562Z,59.61
2018-09-29T08:40:15.791Z,59.72
2018-09-29T08:42:44.848Z,60.94
2018-09-29T08:45:13.775Z,60.55
2018-09-29T08:47:42.594Z,61.00
2018-09-29T08:50:11.470Z,60.92
2018-09-29T08:52:40.563Z,60.72
2018-09-29T08:55:09.423Z,61.18
2018-09-29T08:57:38.235Z,60.79
2018-09-29T09:00:07.149Z,60.91
2018-09-29T09:02:36.060Z,60.86
2018-09-29T09:05:04.976Z,60.83
2018-09-29T09:07:33.825Z,61.66
2018-09-29T09:10:02.697Z,62.67
2018-09-29T09:12:31.519Z,61.33
2018-09-29T09:15:00.448Z,59.92
2018-09-29T09:17:29.271Z,60.71
2018-09-29T09:19:58.196Z,60.83
2018-09-29T09:22:26.986Z,60.12
2018-09-29T09:24:55.773Z,60.58
2018-09-29T09:27:24.669Z,60.95
2018-09-29T09:29:53.579Z,60.14
2018-09-29T09:32:22.511Z,59.47
2018-09-29T09:34:51.333Z,59.25
2018-09-29T09:37:20.192Z,58.49
2018-09-29T09:39:49.056Z,58.61
2018-09-29T09:42:17.904Z,59.17
2018-09-29T09:44:46.688Z,57.75
2018-09-29T09:47:15.551Z,57.95
2018-09-29T09:49:44.339Z,57.33
2018-09-29T09:52:13.244Z,56.88
2018-09-29T09:54:42.029Z,56.59
2018-09-29T09:57:10.895Z,59.02
2018-09-29T09:59:39.660Z,56.70
2018-09-29T10:02:14.019Z,55.91
2018-09-29T10:04:42.895Z,55.59
2018-09-29T10:07:11.730Z,54.70
2018-09-29T10:09:40.516Z,54.46
2018-09-29T10:12:09.368Z,53.25
2018-09-29T10:14:38.143Z,51.20
2018-09-29T10:17:07.038Z,51.01
2018-09-29T10:19:35.832Z,51.10
2018-09-29T10:22:04.649Z,51.08
2018-09-29T10:24:33.491Z,51.84
2018-09-29T10:27:02.310Z,51.33
2018-09-29T10:29:31.568Z,50.29
2018-09-29T10:32:00.351Z,50.91
2018-09-29T10:34:29.200Z,49.73
2018-09-29T10:36:58.032Z,50.20
2018-09-29T10:39:26.878Z,51.66
2018-09-29T10:41:57.084Z,51.16
2018-09-29T10:44:25.949Z,51.87
2018-09-29T10:46:54.769Z,50.88
2018-09-29T10:49:23.724Z,50.59
2018-09-29T10:51:52.516Z,50.48
2018-09-29T10:54:21.397Z,50.23
2018-09-29T10:56:50.249Z,49.32
2018-09-29T10:59:19.110Z,49.55
2018-09-29T11:01:47.947Z,49.12
2018-09-29T11:04:16.791Z,48.60
2018-09-29T11:06:45.628Z,48.53
2018-09-29T11:09:15.721Z,47.75
2018-09-29T11:11:44.492Z,48.50
2018-09-29T11:14:13.363Z,47.84
2018-09-29T11:16:42.169Z,48.71
2018-09-29T11:19:11.012Z,48.75
2018-09-29T11:21:39.840Z,48.39
2018-09-29T11:24:08.651Z,48.60
2018-09-29T11:26:37.480Z,49.19
2018-09-29T11:29:06.272Z,48.77
2018-09-29T11:31:35.151Z,47.92
2018-09-29T11:34:03.974Z,48.26
2018-09-29T11:36:32.795Z,47.11
2018-09-29T11:39:01.590Z,46.78
2018-09-29T11:41:30.408Z,46.60
2018-09-29T11:43:59.275Z,47.36
2018-09-29T11:46:28.094Z,47.94
2018-09-29T11:48:56.868Z,46.77
2018-09-29T11:51:25.819Z,46.68
2018-09-29T11:53:54.667Z,45.69
2018-09-29T11:56:23.612Z,46.68
2018-09-29T11:58:52.483Z,45.96
2018-09-29T12:01:21.318Z,45.22
2018-09-29T12:03:50.444Z,44.79
2018-09-29T12:06:19.342Z,45.89
2018-09-29T12:08:48.379Z,45.59
2018-09-29T12:11:17.440Z,46.73
2018-09-29T12:13:46.263Z,46.84
2018-09-29T12:16:15.104Z,45.94
2018-09-29T12:18:43.887Z,45.53
2018-09-29T12:21:12.875Z,45.02
2018-09-29T12:23:41.648Z,45.79
2018-09-29T12:26:10.460Z,46.25
2018-09-29T12:28:39.312Z,46.07
2018-09-29T12:31:08.204Z,44.30
2018-09-29T12:33:37.106Z,45.78
2018-09-29T12:36:05.925Z,45.17
2018-09-29T12:38:34.875Z,44.08
2018-09-29T12:41:03.684Z,43.95
2018-09-29T12:43:32.569Z,42.52
2018-09-29T12:46:01.432Z,44.15
2018-09-29T12:48:30.280Z,42.01
2018-09-29T12:50:59.101Z,42.65
2018-09-29T12:53:27.938Z,41.85
2018-09-29T12:55:56.775Z,43.13
2018-09-29T12:58:25.710Z,42.34
2018-09-29T13:00:54.528Z,42.13
2018-09-29T13:03:23.367Z,41.44
2018-09-29T13:05:52.215Z,42.55
2018-09-29T13:08:21.036Z,42.86
2018-09-29T13:10:49.981Z,42.31
2018-09-29T13:13:19.104Z,43.51
2018-09-29T13:15:47.892Z,42.88
2018-09-29T13:18:16.696Z,43.36
2018-09-29T13:20:45.520Z,44.25
2018-09-29T13:23:14.356Z,45.03
2018-09-29T13:25:43.179Z,44.94
2018-09-29T13:28:11.984Z,44.60
2018-09-29T13:30:40.833Z,45.11
2018-09-29T13:33:10.208Z,45.03
2018-09-29T13:35:39.110Z,45.39
2018-09-29T13:38:07.872Z,44.31
2018-09-29T13:40:36.782Z,45.40
2018-09-29T13:43:05.640Z,44.13
2018-09-29T13:45:34.466Z,45.32
2018-09-29T13:48:04.316Z,44.66
2018-09-29T13:50:33.184Z,45.21
2018-09-29T13:53:02.691Z,45.78
2018-09-29T13:55:31.796Z,44.78
2018-09-29T13:58:00.690Z,46.32
2018-09-29T14:00:29.589Z,43.59
2018-09-29T14:02:58.684Z,41.60
2018-09-29T14:05:27.559Z,42.82
2018-09-29T14:07:56.632Z,43.08
2018-09-29T14:10:26.396Z,42.19
2018-09-29T14:12:55.305Z,43.24
2018-09-29T14:15:24.197Z,44.38
2018-09-29T14:17:53.062Z,44.00
2018-09-29T14:20:21.881Z,43.53
2018-09-29T14:22:50.713Z,44.82
2018-09-29T14:25:19.708Z,45.13
2018-09-29T14:27:48.566Z,45.49
2018-09-29T14:30:17.404Z,46.92
2018-09-29T14:32:46.252Z,47.25
2018-09-29T14:35:15.068Z,46.17
2018-09-29T14:37:44.016Z,45.49
2018-09-29T14:40:12.831Z,46.80
2018-09-29T14:42:41.945Z,46.85
2018-09-29T14:45:10.825Z,47.20
2018-09-29T14:47:39.662Z,46.43
2018-09-29T14:50:08.590Z,45.65
2018-09-29T14:52:37.431Z,46.71
2018-09-29T14:55:06.308Z,46.33
2018-09-29T14:57:35.193Z,45.46
2018-09-29T15:00:04.281Z,46.05
2018-09-29T15:02:33.197Z,44.73
2018-09-29T15:05:02.006Z,43.82
2018-09-29T15:07:30.864Z,44.19
2018-09-29T15:09:59.731Z,43.60
2018-09-29T15:12:28.883Z,43.22
2018-09-29T15:14:58.737Z,44.28
2018-09-29T15:17:28.064Z,45.23
2018-09-29T15:19:57.419Z,45.03
2018-09-29T15:22:26.382Z,45.70
2018-09-29T15:24:55.196Z,45.69
2018-09-29T15:27:24.126Z,45.79
2018-09-29T15:29:53.009Z,45.70
2018-09-29T15:32:21.851Z,46.01
2018-09-29T15:34:51.193Z,46.20
2018-09-29T15:37:22.124Z,45.79
2018-09-29T15:39:51.325Z,46.39
2018-09-29T15:42:20.145Z,44.90
2018-09-29T15:44:49.047Z,45.74
2018-09-29T15:47:18.121Z,45.88
2018-09-29T15:49:46.942Z,44.55
2018-09-29T15:52:15.904Z,45.82
2018-09-29T15:54:44.751Z,46.30
2018-09-29T15:57:13.600Z,46.02
2018-09-29T15:59:42.441Z,45.17
2018-09-29T16:02:11.237Z,46.13
2018-09-29T16:04:40.149Z,46.77
2018-09-29T16:07:08.933Z,46.13
2018-09-29T16:09:37.773Z,46.44
2018-09-29T16:12:06.596Z,46.96
2018-09-29T16:14:35.420Z,46.61
2018-09-29T16:17:04.332Z,46.74
2018-09-29T16:19:33.151Z,46.81
2018-09-29T16:22:01.988Z,46.30
2018-09-29T16:24:30.764Z,47.33
2018-09-29T16:26:59.622Z,48.37
2018-09-29T16:29:28.747Z,48.22
2018-09-29T16:31:57.926Z,48.69
2018-09-29T16:34:26.668Z,49.04
2018-09-29T16:36:55.487Z,49.21
2018-09-29T16:39:24.585Z,49.25
2018-09-29T16:41:53.500Z,50.20
2018-09-29T16:44:22.286Z,51.13
2018-09-29T16:46:51.136Z,51.68
2018-09-29T16:49:19.988Z,52.06
2018-09-29T16:51:48.818Z,52.60
2018-09-29T16:54:17.788Z,54.44
2018-09-29T16:56:46.641Z,54.76
2018-09-29T16:59:15.443Z,53.73
2018-09-29T17:01:44.275Z,54.91
2018-09-29T17:04:13.127Z,55.26
2018-09-29T17:06:42.048Z,55.32
2018-09-29T17:09:11.972Z,55.22
2018-09-29T17:11:41.108Z,55.58
2018-09-29T17:14:09.923Z,56.08
2018-09-29T17:16:38.719Z,56.08
2018-09-29T17:19:07.732Z,56.47
2018-09-29T17:21:36.525Z,56.72
2018-09-29T17:24:05.427Z,58.38
2018-09-29T17:26:34.237Z,58.28
2018-09-29T17:29:03.117Z,58.79
2018-09-29T17:31:31.958Z,59.39
2018-09-29T17:34:00.778Z,60.47
2018-09-29T17:36:29.581Z,60.86
2018-09-29T17:38:58.453Z,61.75
2018-09-29T17:41:27.251Z,62.12
2018-09-29T17:43:56.248Z,62.11
2018-09-29T17:46:25.072Z,63.77
2018-09-29T17:48:53.895Z,63.41
2018-09-29T17:51:22.750Z,63.54
2018-09-29T17:53:51.540Z,63.53
2018-09-29T17:56:20.462Z,64.03
2018-09-29T17:58:49.373Z,64.30
2018-09-29T18:01:18.169Z,64.50
2018-09-29T18:03:47.027Z,64.78
2018-09-29T18:06:15.848Z,64.72
2018-09-29T18:08:44.781Z,64.90
2018-09-29T18:11:13.597Z,64.93
2018-09-29T18:13:42.431Z,65.32
2018-09-29T18:16:11.257Z,65.87
2018-09-29T18:18:40.979Z,66.26
2018-09-29T18:21:09.907Z,66.49
2018-09-29T18:23:38.697Z,67.26
2018-09-29T18:26:07.623Z,67.31
2018-09-29T18:28:36.418Z,67.66
2018-09-29T18:31:05.252Z,68.20
2018-09-29T18:33:34.132Z,68.39
2018-09-29T18:36:03.056Z,68.95
2018-09-29T18:38:31.885Z,69.14
2018-09-29T18:41:01.072Z,69.68
2018-09-29T18:43:29.882Z,69.91
2018-09-29T18:45:58.877Z,71.02
2018-09-29T18:48:28.058Z,70.68
2018-09-29T18:50:57.715Z,70.87
2018-09-29T18:53:26.475Z,71.28
2018-09-29T18:55:55.702Z,71.98
2018-09-29T18:58:24.499Z,71.79
2018-09-29T19:00:53.274Z,71.88
2018-09-29T19:03:22.369Z,72.15
2018-09-29T19:05:51.193Z,72.61
2018-09-29T19:08:20.035Z,72.53
2018-09-29T19:10:48.998Z,72.73
2018-09-29T19:13:17.780Z,73.47
2018-09-29T19:15:46.580Z,73.48
2018-09-29T19:18:15.561Z,74.90
2018-09-29T19:20:44.392Z,75.78
2018-09-29T19:23:13.155Z,77.24
2018-09-29T19:25:42.256Z,76.39
2018-09-29T19:28:11.044Z,75.97
2018-09-29T19:30:39.843Z,76.32
2018-09-29T19:33:08.964Z,76.05
2018-09-29T19:35:37.856Z,75.40
2018-09-29T19:38:06.792Z,76.80
2018-09-29T19:40:35.915Z,77.67
2018-09-29T19:43:04.767Z,77.92
2018-09-29T19:45:33.613Z,77.71
2018-09-29T19:48:02.801Z,76.45
2018-09-29T19:50:31.628Z,76.50
2018-09-29T19:53:00.460Z,76.92
2018-09-29T19:55:29.560Z,76.91
2018-09-29T19:57:58.426Z,76.84
2018-09-29T20:00:28.493Z,76.55
2018-09-29T20:02:57.787Z,76.97
2018-09-29T20:05:26.731Z,76.80
2018-09-29T20:07:55.518Z,77.12
2018-09-29T20:10:24.577Z,77.43
2018-09-29T20:12:53.463Z,77.65
2018-09-29T20:15:22.272Z,78.27
2018-09-29T20:17:51.393Z,78.68
2018-09-29T20:20:20.211Z,78.65
2018-09-29T20:22:49.088Z,77.62
2018-09-29T20:25:18.232Z,78.24
2018-09-29T20:27:47.058Z,78.74
2018-09-29T20:30:15.896Z,78.72
2018-09-29T20:32:44.993Z,78.95
2018-09-29T20:35:13.855Z,78.09
2018-09-29T20:37:42.747Z,78.93
2018-09-29T20:40:11.890Z,78.88
2018-09-29T20:42:40.684Z,78.22
2018-09-29T20:45:09.499Z,78.28
2018-09-29T20:47:38.679Z,78.93
2018-09-29T20:50:07.579Z,77.61
2018-09-29T20:52:36.354Z,80.30
2018-09-29T20:55:05.769Z,81.48
2018-09-29T20:57:34.572Z,80.88
2018-09-29T21:00:03.592Z,80.71
2018-09-29T21:02:32.752Z,79.98
2018-09-29T21:05:01.572Z,80.60
2018-09-29T21:07:30.384Z,80.19
2018-09-29T21:09:59.827Z,79.46
2018-09-29T21:12:28.649Z,79.21
2018-09-29T21:14:57.444Z,81.55
2018-09-29T21:17:26.613Z,81.55
2018-09-29T21:19:55.456Z,81.01
2018-09-29T21:22:24.508Z,80.19
2018-09-29T21:24:53.556Z,80.03
2018-09-29T21:27:22.426Z,80.91
2018-09-29T21:29:51.253Z,82.46
2018-09-29T21:32:20.805Z,82.20
2018-09-29T21:34:49.602Z,82.45
2018-09-29T21:37:18.485Z,80.67
2018-09-29T21:39:47.335Z,81.31
2018-09-29T21:42:16.462Z,81.64
2018-09-29T21:44:45.227Z,81.76
2018-09-29T21:47:14.388Z,81.06
2018-09-29T21:49:43.255Z,81.47
2018-09-29T21:52:12.291Z,81.09
2018-09-29T21:54:41.427Z,81.28
2018-09-29T21:57:10.254Z,81.24
2018-09-29T21:59:39.051Z,83.67
2018-09-29T22:02:08.311Z,83.04
2018-09-29T22:04:37.181Z,82.14
2018-09-29T22:07:06.161Z,81.51
2018-09-29T22:09:35.259Z,82.29
2018-09-29T22:12:04.083Z,82.40
2018-09-29T22:14:32.952Z,82.34
2018-09-29T22:17:02.173Z,82.33
2018-09-29T22:19:30.972Z,81.98
2018-09-29T22:21:59.804Z,82.03
2018-09-29T22:24:28.952Z,82.14
2018-09-29T22:26:57.783Z,82.02
2018-09-29T22:29:26.569Z,83.52
2018-09-29T22:31:56.051Z,82.33
2018-09-29T22:34:24.749Z,81.75
2018-09-29T22:36:53.523Z,82.87
2018-09-29T22:39:22.713Z,82.39
2018-09-29T22:41:51.503Z,83.06
2018-09-29T22:44:20.299Z,82.49
2018-09-29T22:46:49.493Z,82.01
2018-09-29T22:49:18.356Z,84.59
2018-09-29T22:51:47.220Z,86.44
2018-09-29T22:54:16.371Z,87.38
2018-09-29T22:56:45.168Z,88.34
2018-09-29T22:59:13.947Z,88.51
2018-09-29T23:01:43.031Z,88.20
2018-09-29T23:04:11.984Z,88.31
2018-09-29T23:06:40.810Z,88.20
2018-09-29T23:09:11.380Z,88.61
2018-09-29T23:11:40.578Z,88.67
2018-09-29T23:14:09.391Z,88.19
2018-09-29T23:16:38.646Z,87.44
2018-09-29T23:19:07.515Z,86.72
2018-09-29T23:21:36.287Z,86.55
2018-09-29T23:24:05.437Z,87.52
2018-09-29T23:26:34.232Z,87.78
2018-09-29T23:29:03.102Z,85.93
2018-09-29T23:31:32.214Z,85.41
2018-09-29T23:34:01.008Z,84.56
2018-09-29T23:36:29.790Z,85.79
2018-09-29T23:38:58.859Z,85.25
2018-09-29T23:41:27.715Z,86.87
2018-09-29T23:43:56.486Z,87.18
2018-09-29T23:46:25.894Z,88.42
2018-09-29T23:48:54.693Z,88.39
2018-09-29T23:51:23.551Z,86.87
2018-09-29T23:53:52.756Z,86.05
2018-09-29T23:56:21.547Z,85.20
2018-09-29T23:58:50.343Z,84.56
